Farmington, Utah
Current Conditions -  °F | °C
As of 12:58 AM on Wednesday 22 Oct 2014 (Local Time) from KHIF Reporting Station
Clear Clear  
Wind Chill: 41°   Ceiling: Unl
Heat Index: 44°   Visibility: 10mi
Dew Point: 33°   Wind: 5mph
Humidity: 66%   Direction: 350°N
Pressure: 30.1"   Gusts: NA
Location:  40.98°N, 111.88°W
Report Text: KHIF 220658Z AUTO 35004KT 10SM CLR 07/01 A3010 RMK AO2 SLP170 T00660007 401840057
Loading
Personal Weather Stations






























Interactive Weather Map
Tropical Storm Tracking
New forecast layout! Learn more

10-Day Weather Forecast

Advertisements
Track Severe Weather on mobile